sensor_id;sensor_type;location;lat;lon;timestamp;P1;durP1;ratioP1;P2;durP2;ratioP2
7573;SDS011;3828;48.922;9.116;2024-01-27T00:02:07;1.90;;;1.80;;
7573;SDS011;3828;48.922;9.116;2024-01-27T00:04:36;1.97;;;1.87;;
7573;SDS011;3828;48.922;9.116;2024-01-27T00:07:03;1.80;;;1.70;;
7573;SDS011;3828;48.922;9.116;2024-01-27T00:09:30;1.63;;;1.63;;
7573;SDS011;3828;48.922;9.116;2024-01-27T00:11:57;1.90;;;1.80;;
7573;SDS011;3828;48.922;9.116;2024-01-27T00:14:24;2.10;;;1.90;;
7573;SDS011;3828;48.922;9.116;2024-01-27T00:16:51;1.80;;;1.80;;
7573;SDS011;3828;48.922;9.116;2024-01-27T00:19:18;1.70;;;1.70;;
7573;SDS011;3828;48.922;9.116;2024-01-27T00:21:46;1.53;;;1.53;;
7573;SDS011;3828;48.922;9.116;2024-01-27T00:24:13;1.87;;;1.87;;
7573;SDS011;3828;48.922;9.116;2024-01-27T00:26:40;1.60;;;1.60;;
7573;SDS011;3828;48.922;9.116;2024-01-27T00:29:07;2.10;;;2.10;;
7573;SDS011;3828;48.922;9.116;2024-01-27T00:31:33;1.63;;;1.63;;
7573;SDS011;3828;48.922;9.116;2024-01-27T00:34:00;2.20;;;2.20;;
7573;SDS011;3828;48.922;9.116;2024-01-27T00:36:27;1.80;;;1.80;;
7573;SDS011;3828;48.922;9.116;2024-01-27T00:38:55;1.97;;;1.97;;
7573;SDS011;3828;48.922;9.116;2024-01-27T00:41:22;1.57;;;1.57;;
7573;SDS011;3828;48.922;9.116;2024-01-27T00:43:49;1.93;;;1.93;;
7573;SDS011;3828;48.922;9.116;2024-01-27T00:46:16;1.70;;;1.70;;
7573;SDS011;3828;48.922;9.116;2024-01-27T00:48:43;1.60;;;1.60;;
7573;SDS011;3828;48.922;9.116;2024-01-27T00:51:09;1.50;;;1.50;;
7573;SDS011;3828;48.922;9.116;2024-01-27T00:53:36;1.80;;;1.80;;
7573;SDS011;3828;48.922;9.116;2024-01-27T00:56:05;1.47;;;1.47;;
7573;SDS011;3828;48.922;9.116;2024-01-27T00:58:32;1.90;;;1.90;;
7573;SDS011;3828;48.922;9.116;2024-01-27T01:01:00;1.47;;;1.47;;
7573;SDS011;3828;48.922;9.116;2024-01-27T01:03:27;1.90;;;1.90;;
7573;SDS011;3828;48.922;9.116;2024-01-27T01:05:54;1.90;;;1.90;;
7573;SDS011;3828;48.922;9.116;2024-01-27T01:08:21;1.67;;;1.67;;
7573;SDS011;3828;48.922;9.116;2024-01-27T01:10:48;1.43;;;1.43;;
7573;SDS011;3828;48.922;9.116;2024-01-27T01:13:16;2.00;;;2.00;;
7573;SDS011;3828;48.922;9.116;2024-01-27T01:15:42;1.90;;;1.90;;
7573;SDS011;3828;48.922;9.116;2024-01-27T01:18:10;1.70;;;1.70;;
7573;SDS011;3828;48.922;9.116;2024-01-27T01:20:37;1.67;;;1.67;;
7573;SDS011;3828;48.922;9.116;2024-01-27T01:23:03;1.90;;;1.90;;
7573;SDS011;3828;48.922;9.116;2024-01-27T01:25:30;1.70;;;1.70;;
7573;SDS011;3828;48.922;9.116;2024-01-27T01:27:57;1.80;;;1.80;;
7573;SDS011;3828;48.922;9.116;2024-01-27T01:30:25;1.80;;;1.80;;
7573;SDS011;3828;48.922;9.116;2024-01-27T01:32:52;2.00;;;2.00;;
7573;SDS011;3828;48.922;9.116;2024-01-27T01:35:19;1.40;;;1.40;;
7573;SDS011;3828;48.922;9.116;2024-01-27T01:37:46;1.83;;;1.83;;
7573;SDS011;3828;48.922;9.116;2024-01-27T01:40:14;1.60;;;1.60;;
7573;SDS011;3828;48.922;9.116;2024-01-27T01:42:41;1.60;;;1.60;;
7573;SDS011;3828;48.922;9.116;2024-01-27T01:45:08;1.73;;;1.73;;
7573;SDS011;3828;48.922;9.116;2024-01-27T01:47:39;1.73;;;1.73;;
7573;SDS011;3828;48.922;9.116;2024-01-27T01:50:07;1.63;;;1.63;;
7573;SDS011;3828;48.922;9.116;2024-01-27T01:52:35;1.60;;;1.60;;
7573;SDS011;3828;48.922;9.116;2024-01-27T01:55:03;1.60;;;1.60;;
7573;SDS011;3828;48.922;9.116;2024-01-27T01:57:30;1.67;;;1.67;;
7573;SDS011;3828;48.922;9.116;2024-01-27T01:59:58;1.90;;;1.90;;
7573;SDS011;3828;48.922;9.116;2024-01-27T02:02:25;1.67;;;1.67;;
7573;SDS011;3828;48.922;9.116;2024-01-27T02:04:53;2.00;;;2.00;;
7573;SDS011;3828;48.922;9.116;2024-01-27T02:07:20;1.90;;;1.90;;
7573;SDS011;3828;48.922;9.116;2024-01-27T02:09:47;1.70;;;1.70;;
7573;SDS011;3828;48.922;9.116;2024-01-27T02:12:14;1.63;;;1.63;;
7573;SDS011;3828;48.922;9.116;2024-01-27T02:14:41;1.70;;;1.70;;
7573;SDS011;3828;48.922;9.116;2024-01-27T02:17:08;1.70;;;1.70;;
7573;SDS011;3828;48.922;9.116;2024-01-27T02:19:35;1.70;;;1.70;;
7573;SDS011;3828;48.922;9.116;2024-01-27T02:22:03;1.80;;;1.80;;
7573;SDS011;3828;48.922;9.116;2024-01-27T02:24:31;1.70;;;1.70;;
7573;SDS011;3828;48.922;9.116;2024-01-27T02:26:58;1.80;;;1.80;;
7573;SDS011;3828;48.922;9.116;2024-01-27T02:29:25;1.97;;;1.97;;
7573;SDS011;3828;48.922;9.116;2024-01-27T02:31:53;1.70;;;1.70;;
7573;SDS011;3828;48.922;9.116;2024-01-27T02:34:20;1.90;;;1.90;;
7573;SDS011;3828;48.922;9.116;2024-01-27T02:36:46;2.10;;;2.10;;
7573;SDS011;3828;48.922;9.116;2024-01-27T02:39:13;1.90;;;1.90;;
7573;SDS011;3828;48.922;9.116;2024-01-27T02:41:42;2.00;;;2.00;;
7573;SDS011;3828;48.922;9.116;2024-01-27T02:44:09;2.13;;;2.13;;
7573;SDS011;3828;48.922;9.116;2024-01-27T02:46:36;1.90;;;1.90;;
7573;SDS011;3828;48.922;9.116;2024-01-27T02:49:03;2.20;;;2.20;;
7573;SDS011;3828;48.922;9.116;2024-01-27T02:51:29;1.70;;;1.70;;
7573;SDS011;3828;48.922;9.116;2024-01-27T02:53:57;1.80;;;1.80;;
7573;SDS011;3828;48.922;9.116;2024-01-27T02:56:24;1.80;;;1.80;;
7573;SDS011;3828;48.922;9.116;2024-01-27T02:58:52;1.80;;;1.80;;
7573;SDS011;3828;48.922;9.116;2024-01-27T03:01:19;1.83;;;1.83;;
7573;SDS011;3828;48.922;9.116;2024-01-27T03:03:45;2.10;;;2.10;;
7573;SDS011;3828;48.922;9.116;2024-01-27T03:06:12;1.90;;;1.90;;
7573;SDS011;3828;48.922;9.116;2024-01-27T03:08:40;1.80;;;1.80;;
7573;SDS011;3828;48.922;9.116;2024-01-27T03:11:06;1.70;;;1.70;;
7573;SDS011;3828;48.922;9.116;2024-01-27T03:13:33;1.80;;;1.80;;
7573;SDS011;3828;48.922;9.116;2024-01-27T03:16:02;1.67;;;1.67;;
7573;SDS011;3828;48.922;9.116;2024-01-27T03:18:28;1.70;;;1.70;;
7573;SDS011;3828;48.922;9.116;2024-01-27T03:20:55;1.60;;;1.60;;
7573;SDS011;3828;48.922;9.116;2024-01-27T03:23:22;1.70;;;1.70;;
7573;SDS011;3828;48.922;9.116;2024-01-27T03:25:49;1.67;;;1.67;;
7573;SDS011;3828;48.922;9.116;2024-01-27T03:28:16;1.87;;;1.87;;
7573;SDS011;3828;48.922;9.116;2024-01-27T03:30:45;1.90;;;1.90;;
7573;SDS011;3828;48.922;9.116;2024-01-27T03:33:13;1.70;;;1.70;;
7573;SDS011;3828;48.922;9.116;2024-01-27T03:35:39;1.80;;;1.80;;
7573;SDS011;3828;48.922;9.116;2024-01-27T03:38:07;1.70;;;1.70;;
7573;SDS011;3828;48.922;9.116;2024-01-27T03:40:34;1.67;;;1.67;;
7573;SDS011;3828;48.922;9.116;2024-01-27T03:43:01;1.70;;;1.70;;
7573;SDS011;3828;48.922;9.116;2024-01-27T03:45:28;1.97;;;1.97;;
7573;SDS011;3828;48.922;9.116;2024-01-27T03:47:54;1.50;;;1.50;;
7573;SDS011;3828;48.922;9.116;2024-01-27T03:50:22;1.80;;;1.80;;
7573;SDS011;3828;48.922;9.116;2024-01-27T03:52:49;1.50;;;1.50;;
7573;SDS011;3828;48.922;9.116;2024-01-27T03:55:16;2.20;;;2.20;;
7573;SDS011;3828;48.922;9.116;2024-01-27T03:57:43;1.97;;;1.97;;
7573;SDS011;3828;48.922;9.116;2024-01-27T04:00:10;2.47;;;2.47;;
7573;SDS011;3828;48.922;9.116;2024-01-27T04:02:38;1.70;;;1.70;;
7573;SDS011;3828;48.922;9.116;2024-01-27T04:05:05;2.37;;;2.37;;
7573;SDS011;3828;48.922;9.116;2024-01-27T04:07:34;1.60;;;1.60;;
7573;SDS011;3828;48.922;9.116;2024-01-27T04:10:01;2.20;;;2.20;;
7573;SDS011;3828;48.922;9.116;2024-01-27T04:12:29;1.80;;;1.80;;
7573;SDS011;3828;48.922;9.116;2024-01-27T04:14:56;2.10;;;2.10;;
7573;SDS011;3828;48.922;9.116;2024-01-27T04:17:24;1.80;;;1.80;;
7573;SDS011;3828;48.922;9.116;2024-01-27T04:19:51;1.90;;;1.90;;
7573;SDS011;3828;48.922;9.116;2024-01-27T04:22:18;1.80;;;1.80;;
7573;SDS011;3828;48.922;9.116;2024-01-27T04:24:47;1.80;;;1.80;;
7573;SDS011;3828;48.922;9.116;2024-01-27T04:27:14;1.70;;;1.70;;
7573;SDS011;3828;48.922;9.116;2024-01-27T04:29:40;1.70;;;1.70;;
7573;SDS011;3828;48.922;9.116;2024-01-27T04:32:08;1.70;;;1.70;;
7573;SDS011;3828;48.922;9.116;2024-01-27T04:34:35;1.87;;;1.87;;
7573;SDS011;3828;48.922;9.116;2024-01-27T04:37:02;1.37;;;1.37;;
7573;SDS011;3828;48.922;9.116;2024-01-27T04:39:29;1.80;;;1.80;;
7573;SDS011;3828;48.922;9.116;2024-01-27T04:41:57;1.70;;;1.70;;
7573;SDS011;3828;48.922;9.116;2024-01-27T04:44:24;1.60;;;1.60;;
7573;SDS011;3828;48.922;9.116;2024-01-27T04:46:51;1.70;;;1.70;;
7573;SDS011;3828;48.922;9.116;2024-01-27T04:49:19;1.80;;;1.80;;
7573;SDS011;3828;48.922;9.116;2024-01-27T04:51:47;1.70;;;1.70;;
7573;SDS011;3828;48.922;9.116;2024-01-27T04:54:14;1.80;;;1.80;;
7573;SDS011;3828;48.922;9.116;2024-01-27T04:56:41;1.70;;;1.70;;
7573;SDS011;3828;48.922;9.116;2024-01-27T04:59:09;1.97;;;1.97;;
7573;SDS011;3828;48.922;9.116;2024-01-27T05:01:36;1.90;;;1.90;;
7573;SDS011;3828;48.922;9.116;2024-01-27T05:04:03;1.90;;;1.90;;
7573;SDS011;3828;48.922;9.116;2024-01-27T05:06:30;1.87;;;1.87;;
7573;SDS011;3828;48.922;9.116;2024-01-27T05:08:57;2.00;;;2.00;;
7573;SDS011;3828;48.922;9.116;2024-01-27T05:11:25;1.90;;;1.90;;
7573;SDS011;3828;48.922;9.116;2024-01-27T05:13:52;1.70;;;1.70;;
7573;SDS011;3828;48.922;9.116;2024-01-27T05:16:20;1.80;;;1.80;;
7573;SDS011;3828;48.922;9.116;2024-01-27T05:18:47;1.83;;;1.83;;
7573;SDS011;3828;48.922;9.116;2024-01-27T05:21:14;2.00;;;2.00;;
7573;SDS011;3828;48.922;9.116;2024-01-27T05:23:41;1.83;;;1.83;;
7573;SDS011;3828;48.922;9.116;2024-01-27T05:26:08;2.00;;;2.00;;
7573;SDS011;3828;48.922;9.116;2024-01-27T05:28:36;2.00;;;2.00;;
7573;SDS011;3828;48.922;9.116;2024-01-27T05:31:03;2.20;;;2.20;;
7573;SDS011;3828;48.922;9.116;2024-01-27T05:33:31;2.10;;;2.10;;
7573;SDS011;3828;48.922;9.116;2024-01-27T05:35:58;1.80;;;1.80;;
7573;SDS011;3828;48.922;9.116;2024-01-27T05:38:25;2.00;;;2.00;;
7573;SDS011;3828;48.922;9.116;2024-01-27T05:40:53;1.80;;;1.80;;
7573;SDS011;3828;48.922;9.116;2024-01-27T05:43:20;1.80;;;1.80;;
7573;SDS011;3828;48.922;9.116;2024-01-27T05:45:47;1.90;;;1.90;;
7573;SDS011;3828;48.922;9.116;2024-01-27T05:48:15;1.73;;;1.73;;
7573;SDS011;3828;48.922;9.116;2024-01-27T05:50:43;1.90;;;1.90;;
7573;SDS011;3828;48.922;9.116;2024-01-27T05:53:20;2.10;;;2.10;;
7573;SDS011;3828;48.922;9.116;2024-01-27T05:55:47;1.90;;;1.90;;
7573;SDS011;3828;48.922;9.116;2024-01-27T05:58:14;2.03;;;2.03;;
7573;SDS011;3828;48.922;9.116;2024-01-27T06:00:42;1.73;;;1.73;;
7573;SDS011;3828;48.922;9.116;2024-01-27T06:03:09;1.83;;;1.83;;
7573;SDS011;3828;48.922;9.116;2024-01-27T06:05:35;1.90;;;1.90;;
7573;SDS011;3828;48.922;9.116;2024-01-27T06:08:04;1.97;;;1.97;;
7573;SDS011;3828;48.922;9.116;2024-01-27T06:10:32;1.93;;;1.93;;
7573;SDS011;3828;48.922;9.116;2024-01-27T06:12:59;1.87;;;1.87;;
7573;SDS011;3828;48.922;9.116;2024-01-27T06:15:26;1.90;;;1.90;;
7573;SDS011;3828;48.922;9.116;2024-01-27T06:17:52;1.90;;;1.90;;
7573;SDS011;3828;48.922;9.116;2024-01-27T06:20:20;2.00;;;2.00;;
7573;SDS011;3828;48.922;9.116;2024-01-27T06:22:47;1.70;;;1.70;;
7573;SDS011;3828;48.922;9.116;2024-01-27T06:25:15;1.60;;;1.60;;
7573;SDS011;3828;48.922;9.116;2024-01-27T06:27:42;1.90;;;1.90;;
7573;SDS011;3828;48.922;9.116;2024-01-27T06:30:10;2.03;;;2.03;;
7573;SDS011;3828;48.922;9.116;2024-01-27T06:32:37;1.80;;;1.80;;
7573;SDS011;3828;48.922;9.116;2024-01-27T06:35:07;1.77;;;1.77;;
7573;SDS011;3828;48.922;9.116;2024-01-27T06:37:33;1.90;;;1.90;;
7573;SDS011;3828;48.922;9.116;2024-01-27T06:40:00;1.93;;;1.93;;
7573;SDS011;3828;48.922;9.116;2024-01-27T06:42:28;1.93;;;1.93;;
7573;SDS011;3828;48.922;9.116;2024-01-27T06:44:55;1.80;;;1.80;;
7573;SDS011;3828;48.922;9.116;2024-01-27T06:47:22;1.67;;;1.67;;
7573;SDS011;3828;48.922;9.116;2024-01-27T06:49:49;1.77;;;1.77;;
7573;SDS011;3828;48.922;9.116;2024-01-27T06:52:16;1.90;;;1.90;;
7573;SDS011;3828;48.922;9.116;2024-01-27T06:54:43;1.70;;;1.70;;
7573;SDS011;3828;48.922;9.116;2024-01-27T06:57:17;1.90;;;1.90;;
7573;SDS011;3828;48.922;9.116;2024-01-27T06:59:46;1.80;;;1.80;;
7573;SDS011;3828;48.922;9.116;2024-01-27T07:02:17;1.80;;;1.80;;
7573;SDS011;3828;48.922;9.116;2024-01-27T07:04:44;1.80;;;1.80;;
7573;SDS011;3828;48.922;9.116;2024-01-27T07:07:11;1.80;;;1.80;;
7573;SDS011;3828;48.922;9.116;2024-01-27T07:09:38;2.10;;;2.10;;
7573;SDS011;3828;48.922;9.116;2024-01-27T07:12:05;2.00;;;2.00;;
7573;SDS011;3828;48.922;9.116;2024-01-27T07:14:34;1.90;;;1.90;;
7573;SDS011;3828;48.922;9.116;2024-01-27T07:17:03;1.70;;;1.70;;
7573;SDS011;3828;48.922;9.116;2024-01-27T07:19:30;2.17;;;2.17;;
7573;SDS011;3828;48.922;9.116;2024-01-27T07:21:57;1.80;;;1.80;;
7573;SDS011;3828;48.922;9.116;2024-01-27T07:24:24;2.27;;;2.27;;
7573;SDS011;3828;48.922;9.116;2024-01-27T07:26:52;1.90;;;1.90;;
7573;SDS011;3828;48.922;9.116;2024-01-27T07:29:18;2.17;;;2.17;;
7573;SDS011;3828;48.922;9.116;2024-01-27T07:31:46;1.70;;;1.70;;
7573;SDS011;3828;48.922;9.116;2024-01-27T07:34:14;1.97;;;1.97;;
7573;SDS011;3828;48.922;9.116;2024-01-27T07:36:41;1.90;;;1.90;;
7573;SDS011;3828;48.922;9.116;2024-01-27T07:39:08;2.27;;;2.27;;
7573;SDS011;3828;48.922;9.116;2024-01-27T07:41:35;2.10;;;2.10;;
7573;SDS011;3828;48.922;9.116;2024-01-27T07:44:08;2.13;;;2.13;;
7573;SDS011;3828;48.922;9.116;2024-01-27T07:46:36;1.90;;;1.90;;
7573;SDS011;3828;48.922;9.116;2024-01-27T07:49:03;1.80;;;1.80;;
7573;SDS011;3828;48.922;9.116;2024-01-27T07:51:32;1.80;;;1.80;;
7573;SDS011;3828;48.922;9.116;2024-01-27T07:53:59;1.63;;;1.63;;
7573;SDS011;3828;48.922;9.116;2024-01-27T07:56:26;1.70;;;1.70;;
7573;SDS011;3828;48.922;9.116;2024-01-27T07:58:53;1.87;;;1.87;;
7573;SDS011;3828;48.922;9.116;2024-01-27T08:01:20;1.70;;;1.70;;
7573;SDS011;3828;48.922;9.116;2024-01-27T08:03:47;2.10;;;2.10;;
7573;SDS011;3828;48.922;9.116;2024-01-27T08:06:15;1.70;;;1.70;;
7573;SDS011;3828;48.922;9.116;2024-01-27T08:08:45;1.80;;;1.80;;
7573;SDS011;3828;48.922;9.116;2024-01-27T08:11:12;1.70;;;1.70;;
7573;SDS011;3828;48.922;9.116;2024-01-27T08:13:39;2.00;;;2.00;;
7573;SDS011;3828;48.922;9.116;2024-01-27T08:16:08;1.50;;;1.50;;
7573;SDS011;3828;48.922;9.116;2024-01-27T08:18:37;1.90;;;1.90;;
7573;SDS011;3828;48.922;9.116;2024-01-27T08:21:04;1.80;;;1.80;;
7573;SDS011;3828;48.922;9.116;2024-01-27T08:23:31;1.90;;;1.90;;
7573;SDS011;3828;48.922;9.116;2024-01-27T08:26:00;1.90;;;1.90;;
7573;SDS011;3828;48.922;9.116;2024-01-27T08:28:27;1.83;;;1.83;;
7573;SDS011;3828;48.922;9.116;2024-01-27T08:30:54;1.77;;;1.77;;
7573;SDS011;3828;48.922;9.116;2024-01-27T08:33:21;1.77;;;1.77;;
7573;SDS011;3828;48.922;9.116;2024-01-27T08:35:48;1.80;;;1.80;;
7573;SDS011;3828;48.922;9.116;2024-01-27T08:38:15;1.67;;;1.67;;
7573;SDS011;3828;48.922;9.116;2024-01-27T08:40:42;1.90;;;1.90;;
7573;SDS011;3828;48.922;9.116;2024-01-27T08:43:10;1.50;;;1.50;;
7573;SDS011;3828;48.922;9.116;2024-01-27T08:45:37;1.87;;;1.87;;
7573;SDS011;3828;48.922;9.116;2024-01-27T08:48:05;1.80;;;1.80;;
7573;SDS011;3828;48.922;9.116;2024-01-27T08:50:32;1.83;;;1.83;;
7573;SDS011;3828;48.922;9.116;2024-01-27T08:52:59;1.57;;;1.57;;
7573;SDS011;3828;48.922;9.116;2024-01-27T08:55:28;1.50;;;1.50;;
7573;SDS011;3828;48.922;9.116;2024-01-27T08:57:55;1.40;;;1.40;;
7573;SDS011;3828;48.922;9.116;2024-01-27T09:00:23;1.80;;;1.80;;
7573;SDS011;3828;48.922;9.116;2024-01-27T09:02:51;1.50;;;1.50;;
7573;SDS011;3828;48.922;9.116;2024-01-27T09:05:18;1.57;;;1.57;;
7573;SDS011;3828;48.922;9.116;2024-01-27T09:07:45;1.60;;;1.60;;
7573;SDS011;3828;48.922;9.116;2024-01-27T09:10:12;1.73;;;1.73;;
7573;SDS011;3828;48.922;9.116;2024-01-27T09:12:40;1.50;;;1.50;;
7573;SDS011;3828;48.922;9.116;2024-01-27T09:15:07;1.50;;;1.50;;
7573;SDS011;3828;48.922;9.116;2024-01-27T09:17:36;1.43;;;1.43;;
7573;SDS011;3828;48.922;9.116;2024-01-27T09:20:03;1.60;;;1.60;;
7573;SDS011;3828;48.922;9.116;2024-01-27T09:22:31;1.50;;;1.50;;
7573;SDS011;3828;48.922;9.116;2024-01-27T09:24:58;1.40;;;1.40;;
7573;SDS011;3828;48.922;9.116;2024-01-27T09:27:24;1.40;;;1.40;;
7573;SDS011;3828;48.922;9.116;2024-01-27T09:29:51;1.53;;;1.53;;
7573;SDS011;3828;48.922;9.116;2024-01-27T09:32:18;1.20;;;1.20;;
7573;SDS011;3828;48.922;9.116;2024-01-27T09:34:47;1.43;;;1.43;;
7573;SDS011;3828;48.922;9.116;2024-01-27T09:37:13;1.10;;;1.10;;
7573;SDS011;3828;48.922;9.116;2024-01-27T09:39:41;1.00;;;1.00;;
7573;SDS011;3828;48.922;9.116;2024-01-27T09:42:08;1.30;;;1.30;;
7573;SDS011;3828;48.922;9.116;2024-01-27T09:44:41;1.00;;;1.00;;
7573;SDS011;3828;48.922;9.116;2024-01-27T09:47:10;1.27;;;1.27;;
7573;SDS011;3828;48.922;9.116;2024-01-27T09:49:38;0.80;;;0.80;;
7573;SDS011;3828;48.922;9.116;2024-01-27T09:52:07;1.17;;;1.17;;
7573;SDS011;3828;48.922;9.116;2024-01-27T09:54:34;0.80;;;0.80;;
7573;SDS011;3828;48.922;9.116;2024-01-27T09:57:01;1.20;;;1.20;;
7573;SDS011;3828;48.922;9.116;2024-01-27T09:59:28;0.70;;;0.70;;
7573;SDS011;3828;48.922;9.116;2024-01-27T10:01:57;0.90;;;0.90;;
7573;SDS011;3828;48.922;9.116;2024-01-27T10:04:25;0.80;;;0.80;;
7573;SDS011;3828;48.922;9.116;2024-01-27T10:06:54;1.10;;;1.10;;
7573;SDS011;3828;48.922;9.116;2024-01-27T10:09:25;1.03;;;1.03;;
7573;SDS011;3828;48.922;9.116;2024-01-27T10:11:52;0.63;;;0.63;;
7573;SDS011;3828;48.922;9.116;2024-01-27T10:14:21;0.63;;;0.63;;
7573;SDS011;3828;48.922;9.116;2024-01-27T10:16:48;0.90;;;0.90;;
7573;SDS011;3828;48.922;9.116;2024-01-27T10:19:15;0.70;;;0.70;;
7573;SDS011;3828;48.922;9.116;2024-01-27T10:21:43;0.60;;;0.60;;
7573;SDS011;3828;48.922;9.116;2024-01-27T10:24:10;0.77;;;0.77;;
7573;SDS011;3828;48.922;9.116;2024-01-27T10:26:39;0.67;;;0.67;;
7573;SDS011;3828;48.922;9.116;2024-01-27T10:29:06;0.63;;;0.63;;
7573;SDS011;3828;48.922;9.116;2024-01-27T10:31:34;0.60;;;0.60;;
7573;SDS011;3828;48.922;9.116;2024-01-27T10:34:02;0.47;;;0.47;;
7573;SDS011;3828;48.922;9.116;2024-01-27T10:36:38;0.40;;;0.40;;
7573;SDS011;3828;48.922;9.116;2024-01-27T10:39:16;0.53;;;0.53;;
7573;SDS011;3828;48.922;9.116;2024-01-27T10:41:47;0.50;;;0.50;;
7573;SDS011;3828;48.922;9.116;2024-01-27T10:44:14;0.60;;;0.60;;
7573;SDS011;3828;48.922;9.116;2024-01-27T10:46:42;0.50;;;0.50;;
7573;SDS011;3828;48.922;9.116;2024-01-27T10:49:12;0.80;;;0.80;;
7573;SDS011;3828;48.922;9.116;2024-01-27T10:51:40;0.50;;;0.50;;
7573;SDS011;3828;48.922;9.116;2024-01-27T10:54:13;0.57;;;0.57;;
7573;SDS011;3828;48.922;9.116;2024-01-27T10:56:43;0.60;;;0.60;;
7573;SDS011;3828;48.922;9.116;2024-01-27T10:59:13;0.40;;;0.40;;
7573;SDS011;3828;48.922;9.116;2024-01-27T11:01:41;0.50;;;0.50;;
7573;SDS011;3828;48.922;9.116;2024-01-27T11:04:10;0.60;;;0.60;;
7573;SDS011;3828;48.922;9.116;2024-01-27T11:06:38;0.63;;;0.63;;
7573;SDS011;3828;48.922;9.116;2024-01-27T11:09:07;0.53;;;0.53;;
7573;SDS011;3828;48.922;9.116;2024-01-27T11:11:36;0.80;;;0.80;;
7573;SDS011;3828;48.922;9.116;2024-01-27T11:14:04;0.50;;;0.50;;
7573;SDS011;3828;48.922;9.116;2024-01-27T11:16:33;1.10;;;1.10;;
7573;SDS011;3828;48.922;9.116;2024-01-27T11:19:01;0.53;;;0.53;;
7573;SDS011;3828;48.922;9.116;2024-01-27T11:21:28;0.70;;;0.70;;
7573;SDS011;3828;48.922;9.116;2024-01-27T11:23:56;0.60;;;0.60;;
7573;SDS011;3828;48.922;9.116;2024-01-27T11:26:23;0.60;;;0.60;;
7573;SDS011;3828;48.922;9.116;2024-01-27T11:28:51;0.63;;;0.63;;
7573;SDS011;3828;48.922;9.116;2024-01-27T11:31:19;0.47;;;0.47;;
7573;SDS011;3828;48.922;9.116;2024-01-27T11:33:47;0.43;;;0.43;;
7573;SDS011;3828;48.922;9.116;2024-01-27T11:36:20;0.53;;;0.53;;
7573;SDS011;3828;48.922;9.116;2024-01-27T11:38:48;0.37;;;0.37;;
7573;SDS011;3828;48.922;9.116;2024-01-27T11:41:23;0.63;;;0.63;;
7573;SDS011;3828;48.922;9.116;2024-01-27T11:43:51;0.93;;;0.93;;
7573;SDS011;3828;48.922;9.116;2024-01-27T11:46:20;0.40;;;0.40;;
7573;SDS011;3828;48.922;9.116;2024-01-27T11:48:47;0.90;;;0.90;;
7573;SDS011;3828;48.922;9.116;2024-01-27T11:51:14;0.80;;;0.80;;
7573;SDS011;3828;48.922;9.116;2024-01-27T11:53:42;1.00;;;1.00;;
7573;SDS011;3828;48.922;9.116;2024-01-27T11:56:10;0.70;;;0.70;;
7573;SDS011;3828;48.922;9.116;2024-01-27T11:58:37;1.10;;;1.10;;
7573;SDS011;3828;48.922;9.116;2024-01-27T12:01:04;0.70;;;0.70;;
7573;SDS011;3828;48.922;9.116;2024-01-27T12:03:32;0.90;;;0.90;;
7573;SDS011;3828;48.922;9.116;2024-01-27T12:05:59;0.90;;;0.90;;
7573;SDS011;3828;48.922;9.116;2024-01-27T12:08:26;1.10;;;1.10;;
7573;SDS011;3828;48.922;9.116;2024-01-27T12:10:54;1.07;;;1.07;;
7573;SDS011;3828;48.922;9.116;2024-01-27T12:13:21;1.00;;;1.00;;
7573;SDS011;3828;48.922;9.116;2024-01-27T12:15:48;0.90;;;0.90;;
7573;SDS011;3828;48.922;9.116;2024-01-27T12:18:15;1.00;;;1.00;;
7573;SDS011;3828;48.922;9.116;2024-01-27T12:20:44;1.10;;;1.10;;
7573;SDS011;3828;48.922;9.116;2024-01-27T12:23:13;1.10;;;1.10;;
7573;SDS011;3828;48.922;9.116;2024-01-27T12:25:40;1.10;;;1.10;;
7573;SDS011;3828;48.922;9.116;2024-01-27T12:28:07;1.30;;;1.30;;
7573;SDS011;3828;48.922;9.116;2024-01-27T12:30:35;1.10;;;1.10;;
7573;SDS011;3828;48.922;9.116;2024-01-27T12:33:07;1.10;;;1.10;;
7573;SDS011;3828;48.922;9.116;2024-01-27T12:35:35;1.20;;;1.20;;
7573;SDS011;3828;48.922;9.116;2024-01-27T12:38:04;1.20;;;1.20;;
7573;SDS011;3828;48.922;9.116;2024-01-27T12:40:31;1.30;;;1.30;;
7573;SDS011;3828;48.922;9.116;2024-01-27T12:42:58;1.17;;;1.17;;
7573;SDS011;3828;48.922;9.116;2024-01-27T12:45:25;1.37;;;1.37;;
7573;SDS011;3828;48.922;9.116;2024-01-27T12:47:53;1.10;;;1.10;;
7573;SDS011;3828;48.922;9.116;2024-01-27T12:50:21;1.40;;;1.40;;
7573;SDS011;3828;48.922;9.116;2024-01-27T12:52:48;1.10;;;1.10;;
7573;SDS011;3828;48.922;9.116;2024-01-27T12:55:16;1.60;;;1.60;;
7573;SDS011;3828;48.922;9.116;2024-01-27T12:57:43;1.50;;;1.50;;
7573;SDS011;3828;48.922;9.116;2024-01-27T13:00:11;1.30;;;1.30;;
7573;SDS011;3828;48.922;9.116;2024-01-27T13:02:40;1.20;;;1.20;;
7573;SDS011;3828;48.922;9.116;2024-01-27T13:05:08;1.77;;;1.77;;
7573;SDS011;3828;48.922;9.116;2024-01-27T13:07:35;1.57;;;1.57;;
7573;SDS011;3828;48.922;9.116;2024-01-27T13:10:02;1.67;;;1.67;;
7573;SDS011;3828;48.922;9.116;2024-01-27T13:12:30;1.63;;;1.63;;
7573;SDS011;3828;48.922;9.116;2024-01-27T13:14:57;1.50;;;1.50;;
7573;SDS011;3828;48.922;9.116;2024-01-27T13:17:24;2.03;;;2.03;;
7573;SDS011;3828;48.922;9.116;2024-01-27T13:19:51;1.20;;;1.20;;
7573;SDS011;3828;48.922;9.116;2024-01-27T13:22:17;1.67;;;1.67;;
7573;SDS011;3828;48.922;9.116;2024-01-27T13:24:49;1.63;;;1.63;;
7573;SDS011;3828;48.922;9.116;2024-01-27T13:27:16;1.60;;;1.60;;
7573;SDS011;3828;48.922;9.116;2024-01-27T13:29:44;1.30;;;1.30;;
7573;SDS011;3828;48.922;9.116;2024-01-27T13:32:11;1.30;;;1.30;;
7573;SDS011;3828;48.922;9.116;2024-01-27T13:34:38;1.40;;;1.40;;
7573;SDS011;3828;48.922;9.116;2024-01-27T13:37:05;1.43;;;1.43;;
7573;SDS011;3828;48.922;9.116;2024-01-27T13:39:34;1.53;;;1.53;;
7573;SDS011;3828;48.922;9.116;2024-01-27T13:42:02;1.27;;;1.27;;
7573;SDS011;3828;48.922;9.116;2024-01-27T13:44:29;1.40;;;1.40;;
7573;SDS011;3828;48.922;9.116;2024-01-27T13:47:01;1.70;;;1.70;;
7573;SDS011;3828;48.922;9.116;2024-01-27T13:49:29;1.40;;;1.40;;
7573;SDS011;3828;48.922;9.116;2024-01-27T13:51:56;1.70;;;1.70;;
7573;SDS011;3828;48.922;9.116;2024-01-27T13:54:24;1.40;;;1.40;;
7573;SDS011;3828;48.922;9.116;2024-01-27T13:56:51;1.40;;;1.40;;
7573;SDS011;3828;48.922;9.116;2024-01-27T13:59:18;1.20;;;1.20;;
7573;SDS011;3828;48.922;9.116;2024-01-27T14:01:46;1.60;;;1.60;;
7573;SDS011;3828;48.922;9.116;2024-01-27T14:04:15;1.50;;;1.50;;
7573;SDS011;3828;48.922;9.116;2024-01-27T14:06:41;1.57;;;1.57;;
7573;SDS011;3828;48.922;9.116;2024-01-27T14:09:08;1.50;;;1.50;;
7573;SDS011;3828;48.922;9.116;2024-01-27T14:11:36;1.90;;;1.90;;
7573;SDS011;3828;48.922;9.116;2024-01-27T14:14:03;1.60;;;1.60;;
7573;SDS011;3828;48.922;9.116;2024-01-27T14:16:30;1.60;;;1.60;;
7573;SDS011;3828;48.922;9.116;2024-01-27T14:18:57;1.57;;;1.57;;
7573;SDS011;3828;48.922;9.116;2024-01-27T14:21:25;2.07;;;2.00;;
7573;SDS011;3828;48.922;9.116;2024-01-27T14:23:52;1.40;;;1.40;;
7573;SDS011;3828;48.922;9.116;2024-01-27T14:26:25;1.33;;;1.33;;
7573;SDS011;3828;48.922;9.116;2024-01-27T14:28:53;1.70;;;1.70;;
7573;SDS011;3828;48.922;9.116;2024-01-27T14:31:20;1.50;;;1.50;;
7573;SDS011;3828;48.922;9.116;2024-01-27T14:33:47;1.20;;;1.20;;
7573;SDS011;3828;48.922;9.116;2024-01-27T14:36:15;1.60;;;1.60;;
7573;SDS011;3828;48.922;9.116;2024-01-27T14:38:43;1.40;;;1.40;;
7573;SDS011;3828;48.922;9.116;2024-01-27T14:41:10;1.70;;;1.70;;
7573;SDS011;3828;48.922;9.116;2024-01-27T14:43:37;1.60;;;1.60;;
7573;SDS011;3828;48.922;9.116;2024-01-27T14:46:04;1.50;;;1.50;;
7573;SDS011;3828;48.922;9.116;2024-01-27T14:48:31;1.30;;;1.30;;
7573;SDS011;3828;48.922;9.116;2024-01-27T14:50:58;1.57;;;1.57;;
7573;SDS011;3828;48.922;9.116;2024-01-27T14:53:26;1.40;;;1.40;;
7573;SDS011;3828;48.922;9.116;2024-01-27T14:55:54;1.70;;;1.70;;
7573;SDS011;3828;48.922;9.116;2024-01-27T14:58:21;1.50;;;1.50;;
7573;SDS011;3828;48.922;9.116;2024-01-27T15:00:49;1.90;;;1.90;;
7573;SDS011;3828;48.922;9.116;2024-01-27T15:03:17;1.50;;;1.50;;
7573;SDS011;3828;48.922;9.116;2024-01-27T15:05:44;1.90;;;1.90;;
7573;SDS011;3828;48.922;9.116;2024-01-27T15:08:11;1.90;;;1.90;;
7573;SDS011;3828;48.922;9.116;2024-01-27T15:10:38;1.50;;;1.50;;
7573;SDS011;3828;48.922;9.116;2024-01-27T15:13:09;1.30;;;1.30;;
7573;SDS011;3828;48.922;9.116;2024-01-27T15:15:36;1.70;;;1.70;;
7573;SDS011;3828;48.922;9.116;2024-01-27T15:18:03;1.70;;;1.70;;